Time;durP1;ratioP1;P1;durP2;ratioP2;P2;SDS_P1;SDS_P2;PMS_P1;PMS_P2;Temp;Humidity;BMP_temperature;BMP_pressure;BME280_temperature;BME280_humidity;BME280_pressure;Samples;Min_cycle;Max_cycle;Signal;HPM_P1;HPM_P2
2023/04/26 00:02:07;;;;;;;11.23;5.33;;;7.60;57.00;;;;;;5036937;28;46507;-72
2023/04/26 00:04:33;;;;;;;12.17;6.10;;;7.60;57.10;;;;;;5037916;28;47099;-72
2023/04/26 00:06:59;;;;;;;6.97;5.07;;;7.60;57.10;;;;;;5036822;28;46461;-71
2023/04/26 00:09:25;;;;;;;10.70;6.27;;;7.70;57.30;;;;;;5036356;28;46490;-72
2023/04/26 00:11:51;;;;;;;13.43;6.20;;;7.60;57.10;;;;;;5037028;28;46235;-73
2023/04/26 00:14:17;;;;;;;12.17;7.17;;;7.60;57.10;;;;;;5038522;28;46518;-72
2023/04/26 00:16:42;;;;;;;20.40;6.23;;;7.60;57.20;;;;;;5038742;28;45779;-72
2023/04/26 00:19:08;;;;;;;20.80;6.50;;;7.60;57.20;;;;;;5046235;28;46358;-73
2023/04/26 00:21:35;;;;;;;10.33;6.43;;;7.60;57.40;;;;;;5038226;28;46431;-72
2023/04/26 00:24:01;;;;;;;9.07;6.17;;;7.50;57.40;;;;;;5039035;28;46523;-72
2023/04/26 00:26:26;;;;;;;8.53;5.30;;;7.50;57.40;;;;;;5034978;28;46247;-72
2023/04/26 00:28:52;;;;;;;12.80;6.07;;;7.60;57.50;;;;;;5033637;28;45926;-72
2023/04/26 00:31:18;;;;;;;12.20;6.27;;;7.60;57.40;;;;;;5040829;28;46553;-72
2023/04/26 00:33:43;;;;;;;7.87;5.50;;;7.60;57.50;;;;;;5040228;28;46643;-72
2023/04/26 00:36:09;;;;;;;7.83;5.30;;;7.60;57.50;;;;;;5042705;28;45958;-72
2023/04/26 00:38:35;;;;;;;8.70;5.43;;;7.60;57.30;;;;;;5041663;28;46496;-72
2023/04/26 00:41:01;;;;;;;7.23;4.87;;;7.50;57.20;;;;;;5040794;28;46326;-72
2023/04/26 00:43:26;;;;;;;10.00;5.67;;;7.50;57.30;;;;;;5038906;28;46432;-72
2023/04/26 00:45:52;;;;;;;10.80;6.03;;;7.40;57.60;;;;;;5041510;28;46380;-72
2023/04/26 00:48:19;;;;;;;8.90;4.80;;;7.40;57.70;;;;;;5040938;28;46431;-71
2023/04/26 00:50:46;;;;;;;9.17;5.20;;;7.50;57.60;;;;;;5042113;28;46774;-71
2023/04/26 00:53:13;;;;;;;12.87;5.27;;;7.50;57.50;;;;;;5040209;28;46496;-72
2023/04/26 00:55:43;;;;;;;10.07;5.40;;;7.50;57.40;;;;;;5041707;28;46746;-72
2023/04/26 00:58:09;;;;;;;9.43;4.87;;;7.40;57.40;;;;;;5041609;28;46487;-72
2023/04/26 01:00:34;;;;;;;6.93;4.43;;;7.40;57.50;;;;;;5042300;28;46299;-72
2023/04/26 01:03:00;;;;;;;16.10;5.30;;;7.40;57.60;;;;;;5040497;28;46485;-72
2023/04/26 01:05:26;;;;;;;9.47;4.57;;;7.40;57.60;;;;;;5035883;28;46382;-72
2023/04/26 01:07:52;;;;;;;6.97;4.70;;;7.40;57.80;;;;;;5038899;28;46475;-72
2023/04/26 01:10:18;;;;;;;6.73;4.60;;;7.30;57.70;;;;;;5038961;28;46385;-72
2023/04/26 01:12:43;;;;;;;9.33;5.20;;;7.30;57.70;;;;;;5038806;28;47045;-72
2023/04/26 01:15:10;;;;;;;7.03;4.77;;;7.30;57.70;;;;;;5040465;28;46351;-72
2023/04/26 01:17:39;;;;;;;7.37;5.00;;;7.30;57.70;;;;;;5039883;28;46653;-72
2023/04/26 01:20:07;;;;;;;5.90;3.80;;;7.20;57.80;;;;;;5038820;28;46586;-72
2023/04/26 01:22:35;;;;;;;8.60;5.30;;;7.20;57.90;;;;;;5038698;28;47045;-72
2023/04/26 01:25:04;;;;;;;6.70;4.33;;;7.20;58.00;;;;;;5037659;28;46408;-72
2023/04/26 01:27:30;;;;;;;8.17;4.47;;;7.20;57.80;;;;;;5040371;28;46364;-72
2023/04/26 01:29:55;;;;;;;8.00;5.17;;;7.10;57.90;;;;;;5039537;28;46680;-73
2023/04/26 01:32:21;;;;;;;8.53;5.17;;;7.10;58.00;;;;;;5041120;28;47073;-72
2023/04/26 01:34:46;;;;;;;7.80;4.33;;;7.10;57.80;;;;;;5038648;28;46393;-73
2023/04/26 01:37:12;;;;;;;7.80;4.87;;;7.10;57.70;;;;;;5040873;28;46283;-72
2023/04/26 01:39:38;;;;;;;8.40;5.00;;;7.10;57.70;;;;;;5039872;28;46468;-72
2023/04/26 01:42:04;;;;;;;6.93;4.40;;;7.00;57.70;;;;;;5039377;28;46518;-72
2023/04/26 01:44:30;;;;;;;8.83;5.77;;;7.00;58.00;;;;;;5038633;28;46413;-72
2023/04/26 01:46:56;;;;;;;10.00;5.40;;;6.90;58.20;;;;;;5039220;28;46664;-72
2023/04/26 01:49:22;;;;;;;10.57;5.00;;;6.80;58.40;;;;;;5040382;28;46423;-71
2023/04/26 01:51:48;;;;;;;12.40;5.30;;;6.80;58.60;;;;;;5039172;28;46887;-72
2023/04/26 01:54:13;;;;;;;11.03;5.13;;;6.70;58.90;;;;;;5039091;28;46373;-72
2023/04/26 01:56:39;;;;;;;12.33;5.07;;;6.70;58.90;;;;;;5039284;28;46342;-72
2023/04/26 01:59:04;;;;;;;11.43;5.60;;;6.70;58.70;;;;;;5041014;28;46591;-71
2023/04/26 02:01:31;;;;;;;9.83;5.50;;;6.70;58.70;;;;;;5036975;28;46714;-70
2023/04/26 02:03:56;;;;;;;11.87;4.70;;;6.70;58.40;;;;;;5039231;28;46502;-72
2023/04/26 02:06:22;;;;;;;10.60;5.30;;;6.70;58.20;;;;;;5039073;28;46408;-73
2023/04/26 02:08:48;;;;;;;9.10;4.80;;;6.80;57.90;;;;;;5038681;28;46462;-72
2023/04/26 02:11:13;;;;;;;12.50;5.03;;;6.80;57.60;;;;;;5039251;28;46424;-73
2023/04/26 02:13:39;;;;;;;10.30;6.00;;;6.80;57.70;;;;;;5038444;28;46493;-73
2023/04/26 02:16:06;;;;;;;12.30;5.50;;;6.80;57.80;;;;;;5037248;28;46395;-73
2023/04/26 02:18:32;;;;;;;10.97;4.90;;;6.80;57.80;;;;;;5037770;28;46401;-73
2023/04/26 02:20:57;;;;;;;8.33;5.80;;;6.80;57.70;;;;;;5039495;28;46380;-72
2023/04/26 02:23:23;;;;;;;12.43;5.43;;;6.80;57.70;;;;;;5037545;28;46387;-73
2023/04/26 02:25:48;;;;;;;10.43;4.90;;;6.80;57.40;;;;;;5040193;28;46383;-72
2023/04/26 02:28:15;;;;;;;14.30;5.70;;;6.90;57.30;;;;;;5040566;28;46426;-72
2023/04/26 02:30:41;;;;;;;13.87;5.97;;;6.90;57.10;;;;;;5037095;28;46120;-72
2023/04/26 02:33:07;;;;;;;8.10;4.73;;;6.90;57.00;;;;;;5036330;28;46487;-73
2023/04/26 02:35:34;;;;;;;9.63;5.00;;;6.80;57.00;;;;;;5038628;28;45803;-72
2023/04/26 02:37:59;;;;;;;9.83;5.60;;;6.80;57.20;;;;;;5038777;28;45904;-72
2023/04/26 02:40:25;;;;;;;14.00;5.90;;;6.80;57.20;;;;;;5039457;28;46291;-72
2023/04/26 02:42:50;;;;;;;9.73;5.77;;;6.80;57.00;;;;;;5038359;28;46237;-73
2023/04/26 02:45:16;;;;;;;9.80;5.80;;;6.90;57.10;;;;;;5039017;28;46465;-72
2023/04/26 02:47:42;;;;;;;14.53;5.90;;;6.90;57.20;;;;;;5038795;28;46792;-71
2023/04/26 02:50:08;;;;;;;9.07;5.40;;;6.80;57.20;;;;;;5039822;28;47424;-72
2023/04/26 02:52:35;;;;;;;11.80;5.50;;;6.80;57.30;;;;;;5038243;28;46403;-72
2023/04/26 02:55:02;;;;;;;10.17;5.50;;;6.90;57.10;;;;;;5038966;28;46354;-71
2023/04/26 02:57:28;;;;;;;12.50;6.37;;;6.90;57.00;;;;;;5038160;28;46365;-71
2023/04/26 02:59:54;;;;;;;10.57;5.70;;;6.90;57.10;;;;;;5040168;28;46494;-71
2023/04/26 03:02:20;;;;;;;10.93;5.77;;;6.90;57.10;;;;;;5044070;28;45818;-71
2023/04/26 03:04:46;;;;;;;12.50;5.90;;;6.90;57.20;;;;;;5036402;28;45911;-72
2023/04/26 03:07:12;;;;;;;11.50;6.13;;;6.90;57.40;;;;;;5038339;28;46505;-72
2023/04/26 03:09:37;;;;;;;15.37;5.97;;;6.80;57.60;;;;;;5038050;28;46376;-72
2023/04/26 03:12:05;;;;;;;10.17;6.37;;;6.70;57.70;;;;;;5038298;28;45917;-72
2023/04/26 03:14:32;;;;;;;8.80;6.53;;;6.70;58.00;;;;;;5056307;28;46753;-72
2023/04/26 03:16:58;;;;;;;12.77;6.37;;;6.60;58.30;;;;;;5038383;28;46400;-71
2023/04/26 03:19:24;;;;;;;11.30;6.20;;;6.60;58.40;;;;;;5038340;28;47232;-72
2023/04/26 03:21:50;;;;;;;10.87;6.37;;;6.60;58.50;;;;;;5036208;28;46466;-73
2023/04/26 03:24:16;;;;;;;10.70;5.93;;;6.60;58.50;;;;;;5038619;28;46443;-71
2023/04/26 03:26:42;;;;;;;13.20;7.17;;;6.60;58.40;;;;;;5035841;28;46315;-72
2023/04/26 03:29:07;;;;;;;13.53;6.70;;;6.60;58.30;;;;;;5038585;28;46294;-72
2023/04/26 03:31:33;;;;;;;12.27;6.77;;;6.60;58.20;;;;;;5036423;28;46361;-72
2023/04/26 03:33:58;;;;;;;12.33;7.20;;;6.60;58.10;;;;;;5039888;28;46490;-72
2023/04/26 03:36:24;;;;;;;13.17;6.93;;;6.70;58.10;;;;;;5038080;28;46385;-72
2023/04/26 03:38:50;;;;;;;15.03;7.50;;;6.70;58.10;;;;;;5038423;28;46348;-71
2023/04/26 03:41:16;;;;;;;19.73;8.00;;;6.70;58.20;;;;;;5038690;28;46136;-72
2023/04/26 03:43:41;;;;;;;14.30;7.90;;;6.70;58.20;;;;;;5037619;28;46471;-71
2023/04/26 03:46:07;;;;;;;14.30;7.00;;;6.70;58.30;;;;;;5034676;28;46496;-71
2023/04/26 03:48:33;;;;;;;8.80;5.97;;;6.60;58.30;;;;;;5037475;28;46539;-71
2023/04/26 03:50:58;;;;;;;19.97;6.67;;;6.60;58.40;;;;;;5037858;28;46718;-71
2023/04/26 03:53:24;;;;;;;13.10;6.07;;;6.60;58.40;;;;;;5039586;28;46474;-71
2023/04/26 03:55:49;;;;;;;10.93;6.40;;;6.60;58.40;;;;;;5036365;28;45850;-71
2023/04/26 03:58:15;;;;;;;14.67;7.30;;;6.60;58.30;;;;;;5038592;28;46020;-72
2023/04/26 04:00:42;;;;;;;12.90;7.60;;;6.60;58.40;;;;;;5036764;28;46440;-71
2023/04/26 04:03:08;;;;;;;16.67;8.27;;;6.50;58.40;;;;;;5040478;28;46222;-71
2023/04/26 04:05:33;;;;;;;15.17;8.20;;;6.50;58.50;;;;;;5045012;28;47489;-71
2023/04/26 04:07:59;;;;;;;14.00;7.50;;;6.50;58.40;;;;;;5045406;28;46238;-71
2023/04/26 04:10:25;;;;;;;12.50;6.27;;;6.50;58.60;;;;;;5042719;28;46420;-71
2023/04/26 04:12:52;;;;;;;12.30;6.77;;;6.40;58.80;;;;;;5045630;28;46368;-72
2023/04/26 04:15:19;;;;;;;11.90;6.13;;;6.30;58.80;;;;;;5043560;28;46508;-71
2023/04/26 04:17:45;;;;;;;12.90;6.77;;;6.30;59.00;;;;;;5043709;28;46950;-71
2023/04/26 04:20:11;;;;;;;13.30;6.70;;;6.30;59.00;;;;;;5044289;28;45862;-72
2023/04/26 04:22:38;;;;;;;11.33;6.20;;;6.30;59.00;;;;;;5044815;28;46305;-71
2023/04/26 04:25:09;;;;;;;11.43;6.37;;;6.30;59.00;;;;;;5046994;28;46419;-71
2023/04/26 04:27:36;;;;;;;11.27;6.00;;;6.40;58.80;;;;;;5045177;28;46972;-71
2023/04/26 04:30:06;;;;;;;11.30;6.10;;;6.50;58.50;;;;;;5044632;28;45801;-72
2023/04/26 04:32:32;;;;;;;17.53;6.77;;;6.50;58.30;;;;;;5041741;28;46406;-71
2023/04/26 04:34:58;;;;;;;11.67;6.57;;;6.60;58.10;;;;;;5044509;28;46645;-71
2023/04/26 04:37:24;;;;;;;14.10;6.90;;;6.60;58.20;;;;;;5045326;28;47257;-72
2023/04/26 04:39:51;;;;;;;17.00;6.70;;;6.60;58.20;;;;;;5044361;28;46172;-72
2023/04/26 04:42:17;;;;;;;10.73;6.33;;;6.60;58.30;;;;;;5044790;28;46489;-71
2023/04/26 04:44:44;;;;;;;9.30;6.50;;;6.50;58.30;;;;;;5044874;28;45981;-72
2023/04/26 04:47:10;;;;;;;11.40;6.67;;;6.60;58.40;;;;;;5045431;28;47135;-72
2023/04/26 04:49:36;;;;;;;14.20;7.33;;;6.60;58.30;;;;;;5044746;28;46419;-72
2023/04/26 04:52:03;;;;;;;12.60;7.20;;;6.60;58.10;;;;;;5041618;28;46437;-71
2023/04/26 04:54:28;;;;;;;11.17;6.43;;;6.70;58.10;;;;;;5044540;28;46448;-72
2023/04/26 04:56:54;;;;;;;14.30;6.67;;;6.80;58.00;;;;;;5044217;28;47242;-72
2023/04/26 04:59:20;;;;;;;12.87;6.77;;;6.90;57.80;;;;;;5046131;28;46468;-72
2023/04/26 05:01:45;;;;;;;17.43;6.07;;;7.00;57.40;;;;;;5044465;28;46422;-72
2023/04/26 05:04:11;;;;;;;13.20;6.40;;;7.20;56.90;;;;;;5043525;28;46312;-73
2023/04/26 05:06:37;;;;;;;12.73;6.17;;;7.40;56.60;;;;;;5044634;28;47544;-72
2023/04/26 05:09:04;;;;;;;12.10;6.93;;;7.50;56.30;;;;;;5045027;28;46326;-71
2023/04/26 05:11:31;;;;;;;11.00;5.97;;;7.50;56.40;;;;;;5042453;28;46379;-72
2023/04/26 05:13:57;;;;;;;12.40;7.03;;;7.40;56.80;;;;;;5043186;28;46431;-72
2023/04/26 05:16:23;;;;;;;16.60;6.57;;;7.30;57.40;;;;;;5040114;28;46614;-72
2023/04/26 05:18:48;;;;;;;14.17;7.00;;;7.10;58.00;;;;;;5040547;28;45886;-72
2023/04/26 05:21:14;;;;;;;12.40;7.13;;;7.00;58.30;;;;;;5037632;28;46309;-72
2023/04/26 05:23:40;;;;;;;11.90;7.40;;;7.00;58.60;;;;;;5040443;28;46405;-72
2023/04/26 05:26:06;;;;;;;11.70;6.20;;;7.00;58.70;;;;;;5038780;28;46408;-71
2023/04/26 05:28:33;;;;;;;17.77;6.90;;;7.10;58.60;;;;;;5039074;28;46467;-72
2023/04/26 05:31:00;;;;;;;12.63;6.60;;;7.30;58.40;;;;;;5035882;28;46380;-72
2023/04/26 05:33:27;;;;;;;16.43;6.53;;;7.40;58.30;;;;;;5037958;28;46521;-72
2023/04/26 05:35:53;;;;;;;12.27;6.57;;;7.50;58.30;;;;;;5040999;28;46445;-71
2023/04/26 05:38:20;;;;;;;10.57;5.93;;;7.50;58.20;;;;;;5039588;28;46282;-72
2023/04/26 05:40:49;;;;;;;10.33;5.57;;;8.20;57.60;;;;;;5037703;28;46338;-72
2023/04/26 05:43:15;;;;;;;9.30;5.03;;;9.30;57.00;;;;;;5041477;28;46369;-72
2023/04/26 05:45:55;;;;;;;11.90;5.13;;;10.60;53.50;;;;;;5039006;28;46126;-72
2023/04/26 05:48:22;;;;;;;8.33;4.60;;;11.00;52.50;;;;;;5041154;28;46108;-71
2023/04/26 05:50:48;;;;;;;12.90;4.17;;;12.10;49.30;;;;;;5041318;28;46428;-72
2023/04/26 05:53:14;;;;;;;9.17;4.73;;;11.80;49.00;;;;;;5039743;28;46583;-72
2023/04/26 05:55:41;;;;;;;9.20;5.97;;;11.40;49.70;;;;;;5037294;28;46519;-74
2023/04/26 05:58:07;;;;;;;11.33;4.63;;;11.00;50.00;;;;;;5038861;28;46343;-73
2023/04/26 06:00:33;;;;;;;13.83;4.60;;;11.20;49.60;;;;;;5038292;28;46517;-72
2023/04/26 06:02:59;;;;;;;7.00;4.30;;;12.10;48.50;;;;;;5036807;28;46610;-71
2023/04/26 06:05:24;;;;;;;10.70;4.10;;;12.50;46.90;;;;;;5033790;28;48415;-73
2023/04/26 06:07:51;;;;;;;13.30;6.90;;;13.00;44.40;;;;;;5040069;28;46431;-72
2023/04/26 06:10:16;;;;;;;7.27;4.17;;;13.90;43.20;;;;;;5038084;28;45906;-71
2023/04/26 06:12:42;;;;;;;10.07;5.00;;;13.90;42.00;;;;;;5039488;28;46589;-75
2023/04/26 06:15:09;;;;;;;15.40;5.80;;;13.30;42.80;;;;;;5039613;28;46654;-73
2023/04/26 06:17:35;;;;;;;8.70;3.93;;;12.70;43.40;;;;;;5039782;28;46439;-74
2023/04/26 06:20:00;;;;;;;8.40;5.00;;;12.20;44.40;;;;;;5039684;28;46458;-73
2023/04/26 06:22:26;;;;;;;15.00;5.20;;;11.80;45.00;;;;;;5038374;28;46594;-72
2023/04/26 06:24:51;;;;;;;10.87;5.33;;;11.50;45.10;;;;;;5037292;28;47562;-73
2023/04/26 06:27:17;;;;;;;12.70;5.93;;;11.20;45.10;;;;;;5035710;28;46353;-73
2023/04/26 06:29:44;;;;;;;13.37;5.57;;;11.10;45.30;;;;;;5039151;28;46532;-73
2023/04/26 06:32:09;;;;;;;9.23;5.40;;;10.90;45.20;;;;;;5031612;28;46515;-70
2023/04/26 06:34:36;;;;;;;11.67;6.07;;;10.60;44.80;;;;;;5038740;28;46533;-71
2023/04/26 06:37:03;;;;;;;14.70;6.50;;;10.40;44.50;;;;;;5033774;28;46523;-71
2023/04/26 06:39:28;;;;;;;12.67;5.97;;;10.40;44.40;;;;;;5040517;28;46369;-70
2023/04/26 06:41:54;;;;;;;12.97;6.17;;;11.10;41.50;;;;;;5036949;28;46707;-71
2023/04/26 06:44:20;;;;;;;11.70;5.90;;;11.40;41.20;;;;;;5035813;28;47207;-72
2023/04/26 06:46:46;;;;;;;9.90;5.17;;;13.30;36.20;;;;;;5038451;28;46703;-71
2023/04/26 06:49:11;;;;;;;8.23;4.97;;;14.00;32.90;;;;;;5037981;28;46364;-71
2023/04/26 06:51:37;;;;;;;22.40;5.70;;;13.70;33.80;;;;;;5034158;28;46448;-70
2023/04/26 06:54:03;;;;;;;18.10;7.80;;;13.20;35.40;;;;;;5038303;28;46462;-71
2023/04/26 06:56:29;;;;;;;10.40;4.50;;;13.00;36.40;;;;;;5036593;28;46436;-70
2023/04/26 06:59:05;;;;;;;17.03;5.13;;;12.80;37.30;;;;;;5036505;28;46336;-69
2023/04/26 07:01:34;;;;;;;9.70;4.30;;;13.00;37.20;;;;;;5038727;28;46433;-71
2023/04/26 07:04:02;;;;;;;9.47;4.53;;;12.60;37.30;;;;;;5038699;28;46467;-71
2023/04/26 07:06:28;;;;;;;9.43;4.43;;;12.50;38.10;;;;;;5038721;28;46436;-72
2023/04/26 07:08:54;;;;;;;12.47;5.33;;;12.30;38.40;;;;;;5038960;28;46434;-70
2023/04/26 07:11:20;;;;;;;11.43;5.57;;;12.10;38.80;;;;;;5037259;28;46529;-72
2023/04/26 07:13:46;;;;;;;9.17;5.30;;;12.10;38.90;;;;;;5037387;28;46818;-72
2023/04/26 07:16:11;;;;;;;12.23;5.80;;;12.00;39.10;;;;;;5035207;28;46420;-71
2023/04/26 07:18:40;;;;;;;14.37;5.70;;;12.00;38.80;;;;;;5038316;28;46657;-70
2023/04/26 07:21:06;;;;;;;13.10;6.30;;;12.20;38.50;;;;;;5037673;28;46594;-72
2023/04/26 07:23:32;;;;;;;12.20;5.13;;;12.50;37.70;;;;;;5038759;28;46563;-71
2023/04/26 07:25:58;;;;;;;12.47;5.60;;;12.80;37.10;;;;;;5035584;28;46156;-72
2023/04/26 07:28:23;;;;;;;8.47;4.90;;;13.00;36.50;;;;;;5040260;28;46454;-72
2023/04/26 07:30:49;;;;;;;13.43;6.93;;;13.10;36.40;;;;;;5037121;28;46486;-72
2023/04/26 07:33:15;;;;;;;11.73;7.10;;;13.00;36.10;;;;;;5039618;28;46361;-71
2023/04/26 07:35:42;;;;;;;12.63;4.77;;;13.00;35.70;;;;;;5038871;28;46269;-72
2023/04/26 07:38:08;;;;;;;8.30;4.77;;;12.90;35.90;;;;;;5038594;28;45933;-72
2023/04/26 07:40:34;;;;;;;10.20;6.20;;;12.90;35.60;;;;;;5034211;28;46255;-72
2023/04/26 07:42:59;;;;;;;13.90;5.20;;;13.00;35.20;;;;;;5036470;28;46411;-71
2023/04/26 07:45:25;;;;;;;8.47;5.10;;;13.00;35.30;;;;;;5035926;28;46412;-71
2023/04/26 07:47:51;;;;;;;13.07;5.33;;;12.80;35.10;;;;;;5037667;28;46375;-72
2023/04/26 07:50:16;;;;;;;12.13;5.70;;;12.80;35.10;;;;;;5035445;28;46535;-71
2023/04/26 07:52:42;;;;;;;10.63;6.20;;;12.70;34.80;;;;;;5038226;28;46899;-71
2023/04/26 07:55:08;;;;;;;11.70;5.50;;;12.30;34.60;;;;;;5038778;28;46384;-71
2023/04/26 07:57:34;;;;;;;10.63;5.40;;;12.40;35.00;;;;;;5039058;28;46621;-71
2023/04/26 07:59:59;;;;;;;13.67;5.53;;;12.30;35.00;;;;;;5038264;28;46679;-71
2023/04/26 08:02:25;;;;;;;15.50;6.23;;;12.40;34.70;;;;;;5035410;28;46422;-72
2023/04/26 08:04:54;;;;;;;18.53;5.70;;;12.50;34.40;;;;;;5039485;28;46535;-72
2023/04/26 08:07:20;;;;;;;9.37;4.57;;;12.40;34.10;;;;;;5036041;28;46412;-71
2023/04/26 08:09:47;;;;;;;16.13;5.33;;;12.30;33.20;;;;;;5039285;28;46661;-72
2023/04/26 08:12:13;;;;;;;11.97;4.93;;;12.20;33.60;;;;;;5037317;28;46428;-72
2023/04/26 08:14:39;;;;;;;8.77;4.67;;;12.50;33.20;;;;;;5038288;28;46403;-71
2023/04/26 08:17:06;;;;;;;9.10;4.67;;;12.60;32.80;;;;;;5036166;28;46373;-71
2023/04/26 08:19:33;;;;;;;10.00;4.87;;;12.60;32.40;;;;;;5037602;28;46680;-72
2023/04/26 08:21:58;;;;;;;10.53;4.80;;;12.70;32.30;;;;;;5035574;28;47993;-72
2023/04/26 08:24:24;;;;;;;11.43;4.87;;;13.00;32.00;;;;;;5035232;28;46362;-71
2023/04/26 08:26:49;;;;;;;12.43;4.87;;;12.90;31.40;;;;;;5038556;28;46585;-71
2023/04/26 08:29:15;;;;;;;9.97;4.50;;;13.20;30.00;;;;;;5037486;28;46378;-72
2023/04/26 08:31:41;;;;;;;13.10;4.87;;;13.40;28.90;;;;;;5036823;28;46524;-71
2023/04/26 08:34:10;;;;;;;9.33;5.10;;;13.90;28.90;;;;;;5037943;28;46471;-71
2023/04/26 08:36:47;;;;;;;11.30;5.30;;;14.20;28.10;;;;;;5037379;28;46576;-72
2023/04/26 08:39:12;;;;;;;9.13;5.03;;;14.60;27.90;;;;;;5037565;28;46369;-71
2023/04/26 08:41:52;;;;;;;13.70;4.33;;;15.00;27.90;;;;;;5034785;28;46429;-71
2023/04/26 08:44:27;;;;;;;10.30;4.60;;;15.20;27.50;;;;;;5037252;28;46434;-71
2023/04/26 08:47:05;;;;;;;8.77;4.17;;;15.20;27.50;;;;;;5034587;28;45768;-70
2023/04/26 08:49:42;;;;;;;12.43;3.93;;;15.40;26.40;;;;;;5028183;28;46413;-71
2023/04/26 08:52:10;;;;;;;7.97;3.90;;;15.80;25.70;;;;;;5035840;28;47198;-70
2023/04/26 08:54:36;;;;;;;9.30;3.80;;;15.90;25.50;;;;;;5040502;28;46278;-71
2023/04/26 08:57:02;;;;;;;12.70;4.40;;;15.90;24.80;;;;;;5038275;28;46420;-71
2023/04/26 08:59:32;;;;;;;8.23;4.20;;;15.70;23.90;;;;;;5039141;28;46435;-71
2023/04/26 09:02:00;;;;;;;11.50;4.80;;;15.20;24.90;;;;;;5037740;28;47100;-71
2023/04/26 09:04:25;;;;;;;10.57;4.13;;;14.80;25.50;;;;;;5040330;28;46436;-71
2023/04/26 09:06:54;;;;;;;6.30;3.70;;;14.40;26.30;;;;;;5041411;28;46357;-72
2023/04/26 09:09:21;;;;;;;9.70;4.33;;;14.00;26.90;;;;;;5042351;28;46551;-70
2023/04/26 09:12:06;;;;;;;13.03;4.93;;;13.60;27.20;;;;;;5035165;28;47342;-70
2023/04/26 09:14:32;;;;;;;13.23;4.80;;;13.30;26.60;;;;;;5039754;28;46362;-69
2023/04/26 09:16:58;;;;;;;9.30;4.53;;;13.30;26.90;;;;;;5040324;28;46386;-69
2023/04/26 09:19:43;;;;;;;14.23;4.20;;;13.30;26.90;;;;;;5024127;28;46013;-69
2023/04/26 09:22:09;;;;;;;9.27;4.10;;;13.30;26.70;;;;;;5033735;28;46436;-70
2023/04/26 09:24:49;;;;;;;8.00;4.10;;;13.50;26.80;;;;;;5037638;28;46342;-71
2023/04/26 09:27:15;;;;;;;7.43;4.53;;;13.80;26.10;;;;;;5035097;28;46401;-72
2023/04/26 09:30:08;;;;;;;11.50;4.60;;;14.30;26.10;;;;;;5035664;28;46290;-70
2023/04/26 09:32:45;;;;;;;11.73;4.23;;;14.90;25.10;;;;;;5038315;28;46434;-70
2023/04/26 09:35:27;;;;;;;15.60;4.33;;;15.10;24.50;;;;;;5036104;28;46648;-69
2023/04/26 09:38:00;;;;;;;11.10;5.27;;;15.50;24.20;;;;;;5035980;28;46445;-70
2023/04/26 09:40:28;;;;;;;10.30;4.50;;;15.50;25.30;;;;;;5036863;28;46390;-70
2023/04/26 09:42:57;;;;;;;9.63;4.80;;;15.70;24.40;;;;;;5036472;28;46736;-70
2023/04/26 09:45:23;;;;;;;7.50;4.13;;;15.50;23.50;;;;;;5039804;28;45814;-70
2023/04/26 09:47:49;;;;;;;8.80;4.53;;;15.40;24.50;;;;;;5036114;28;46762;-68
2023/04/26 09:50:26;;;;;;;8.77;3.77;;;15.60;24.70;;;;;;5037047;28;46540;-71
2023/04/26 09:52:51;;;;;;;11.40;4.30;;;15.60;24.10;;;;;;5038453;28;46712;-71
2023/04/26 09:55:30;;;;;;;9.17;3.60;;;15.60;24.00;;;;;;5038927;28;46463;-71
2023/04/26 09:57:59;;;;;;;10.53;4.10;;;15.80;23.30;;;;;;5039061;28;46456;-68
2023/04/26 10:00:28;;;;;;;7.13;4.20;;;15.70;23.40;;;;;;5034245;28;46322;-69
2023/04/26 10:02:54;;;;;;;7.57;3.60;;;15.70;22.90;;;;;;5032015;28;46669;-68
2023/04/26 10:05:21;;;;;;;9.03;4.33;;;15.50;22.50;;;;;;5039103;28;46417;-69
2023/04/26 10:07:48;;;;;;;11.27;4.17;;;15.00;22.00;;;;;;5037447;28;46380;-69
2023/04/26 10:10:15;;;;;;;13.43;4.00;;;14.60;22.70;;;;;;5035736;28;46486;-69
2023/04/26 10:12:41;;;;;;;9.20;4.13;;;14.50;23.20;;;;;;5035756;28;47019;-68
2023/04/26 10:15:09;;;;;;;5.87;2.43;;;14.50;23.60;;;;;;5037088;28;46451;-68
2023/04/26 10:17:36;;;;;;;5.30;3.30;;;14.30;23.80;;;;;;5034901;28;46456;-69
2023/04/26 10:20:04;;;;;;;7.27;3.03;;;14.00;24.20;;;;;;5036117;28;46672;-68
2023/04/26 10:22:34;;;;;;;10.30;3.70;;;14.20;23.90;;;;;;5035024;28;46788;-71
2023/04/26 10:25:00;;;;;;;7.87;4.20;;;14.30;24.00;;;;;;5037920;28;46262;-72
2023/04/26 10:27:49;;;;;;;10.27;3.23;;;14.20;23.70;;;;;;5036337;28;46435;-71
2023/04/26 10:30:18;;;;;;;7.13;3.30;;;14.10;24.10;;;;;;5033024;28;46333;-71
2023/04/26 10:32:55;;;;;;;9.20;3.70;;;13.50;23.10;;;;;;5037147;28;46456;-69
2023/04/26 10:35:25;;;;;;;6.60;3.20;;;13.80;23.70;;;;;;5037066;28;46428;-73
2023/04/26 10:38:02;;;;;;;5.17;3.10;;;13.70;22.30;;;;;;5037661;28;46354;-72
2023/04/26 10:40:39;;;;;;;8.17;3.70;;;14.10;22.50;;;;;;5037169;28;46661;-71
2023/04/26 10:43:18;;;;;;;8.43;3.60;;;14.40;21.70;;;;;;5036754;28;46546;-71
2023/04/26 10:45:45;;;;;;;9.10;3.03;;;14.70;21.40;;;;;;5037268;28;46381;-70
2023/04/26 10:48:19;;;;;;;12.13;3.80;;;14.60;20.70;;;;;;5034614;28;46437;-70
2023/04/26 10:51:00;;;;;;;6.60;3.00;;;14.50;21.50;;;;;;5037109;28;45869;-71
2023/04/26 10:53:30;;;;;;;6.10;3.13;;;14.50;21.30;;;;;;5033986;28;47133;-70
2023/04/26 10:55:55;;;;;;;5.30;3.00;;;13.80;20.90;;;;;;5037002;28;46487;-72
2023/04/26 10:58:45;;;;;;;6.47;3.10;;;13.40;20.90;;;;;;5036911;28;46659;-71
2023/04/26 11:01:15;;;;;;;7.77;4.10;;;12.90;21.40;;;;;;5032974;28;46630;-71
2023/04/26 11:03:40;;;;;;;9.67;4.40;;;12.90;22.60;;;;;;5036606;28;46261;-70
2023/04/26 11:06:14;;;;;;;7.43;4.57;;;12.90;22.70;;;;;;5042586;28;45758;-71
2023/04/26 11:08:39;;;;;;;8.13;3.80;;;13.10;22.30;;;;;;5037149;28;46341;-70
2023/04/26 11:11:09;;;;;;;7.13;3.47;;;12.90;22.90;;;;;;5034088;28;46512;-70
2023/04/26 11:13:37;;;;;;;8.83;3.80;;;12.70;22.50;;;;;;5034870;28;46464;-71
2023/04/26 11:16:04;;;;;;;8.37;3.47;;;12.60;22.90;;;;;;5034513;28;46335;-71
2023/04/26 11:18:31;;;;;;;15.53;3.60;;;12.80;22.70;;;;;;5036578;28;46395;-71
2023/04/26 11:20:58;;;;;;;5.70;3.30;;;12.90;22.60;;;;;;5033280;28;46622;-70
2023/04/26 11:23:26;;;;;;;8.73;3.43;;;13.10;22.10;;;;;;5035347;28;46386;-71
2023/04/26 11:25:53;;;;;;;12.77;4.70;;;13.10;22.60;;;;;;5036259;28;46399;-71
2023/04/26 11:28:21;;;;;;;5.90;3.27;;;12.90;22.70;;;;;;5037434;28;46638;-71
2023/04/26 11:30:48;;;;;;;4.93;2.70;;;13.00;23.00;;;;;;5036714;28;46404;-71
2023/04/26 11:33:18;;;;;;;7.20;3.20;;;13.20;23.10;;;;;;5036095;28;46639;-71
2023/04/26 11:35:46;;;;;;;8.20;3.43;;;13.60;22.70;;;;;;5038097;28;46402;-75
2023/04/26 11:38:12;;;;;;;10.43;3.97;;;13.40;21.30;;;;;;5035508;28;46681;-72
2023/04/26 11:40:38;;;;;;;11.70;3.30;;;13.40;21.30;;;;;;5034220;28;46483;-71
2023/04/26 11:43:05;;;;;;;10.27;3.77;;;13.70;21.40;;;;;;5035166;28;47215;-70
2023/04/26 11:45:32;;;;;;;7.13;3.50;;;13.70;21.10;;;;;;5035940;28;46526;-70
2023/04/26 11:48:00;;;;;;;8.73;4.00;;;13.90;20.90;;;;;;5035425;28;46496;-71
2023/04/26 11:50:26;;;;;;;6.13;3.03;;;13.90;21.10;;;;;;5032506;28;46465;-72
2023/04/26 11:52:56;;;;;;;5.63;2.63;;;13.80;20.70;;;;;;5037266;28;46375;-72
2023/04/26 11:55:27;;;;;;;9.37;3.30;;;13.60;21.20;;;;;;5036458;28;46099;-72
2023/04/26 11:57:53;;;;;;;8.37;3.80;;;13.80;21.40;;;;;;5035092;28;46467;-71
2023/04/26 12:00:20;;;;;;;6.93;2.80;;;14.10;21.10;;;;;;5034517;28;46426;-74
2023/04/26 12:02:46;;;;;;;7.20;3.50;;;14.40;20.80;;;;;;5032396;28;46492;-70
2023/04/26 12:05:23;;;;;;;6.10;3.10;;;14.60;20.80;;;;;;5034784;28;46402;-72
2023/04/26 12:07:51;;;;;;;5.90;3.00;;;14.80;20.10;;;;;;5035013;28;46375;-71
2023/04/26 12:10:18;;;;;;;8.20;3.53;;;14.60;20.20;;;;;;5033222;28;45830;-72
2023/04/26 12:12:50;;;;;;;7.87;2.90;;;14.40;20.20;;;;;;5033618;28;47427;-71
2023/04/26 12:15:17;;;;;;;6.90;3.37;;;14.50;20.00;;;;;;5032479;28;46437;-74
2023/04/26 12:17:53;;;;;;;5.87;2.90;;;14.60;20.20;;;;;;5036384;28;46452;-74
2023/04/26 12:20:28;;;;;;;13.20;3.83;;;15.00;20.00;;;;;;5035150;28;46635;-69
2023/04/26 12:23:05;;;;;;;8.57;2.90;;;14.60;18.60;;;;;;5033951;28;46967;-69
2023/04/26 12:25:32;;;;;;;7.37;3.00;;;14.50;19.00;;;;;;5054293;28;46501;-70
2023/04/26 12:27:58;;;;;;;7.10;3.10;;;14.50;18.50;;;;;;5037945;28;46596;-73
2023/04/26 12:30:30;;;;;;;11.83;2.97;;;14.60;18.60;;;;;;5036863;28;46359;-74
2023/04/26 12:32:56;;;;;;;4.10;2.60;;;14.90;19.90;;;;;;5055907;28;47431;-74
2023/04/26 12:35:23;;;;;;;6.40;3.03;;;15.20;19.00;;;;;;5041063;28;46404;-73
2023/04/26 12:37:52;;;;;;;4.93;2.83;;;15.70;18.20;;;;;;5038614;28;46441;-72
2023/04/26 12:40:21;;;;;;;6.47;3.83;;;15.50;18.10;;;;;;5039426;28;45911;-72
2023/04/26 12:42:47;;;;;;;5.17;3.10;;;15.20;18.20;;;;;;5039215;28;46657;-72
2023/04/26 12:45:13;;;;;;;8.10;3.13;;;14.90;18.10;;;;;;5038075;28;46398;-71
2023/04/26 12:47:39;;;;;;;5.60;3.23;;;14.50;17.70;;;;;;5040044;28;46383;-71